Terminal Aerodrome Forecast
Issued by NWS Sioux Falls, SD

Home | Current Version | Previous Version | Graphics & Text | Print | Product List | Glossary On
Versions: 1 2 3 4 5 6 7 8 9 10 11 12 13 14 15 16 17 18 19 20 21 22 23 24 25 26
915
FTUS43 KFSD 110522
TAFSUX
TAF
KSUX 110522Z 1106/1206 13011KT P6SM OVC060
     FM111100 VRB06KT P6SM OVC040
     FM111500 33008KT P6SM OVC035
     FM111800 32016KT P6SM OVC025
     FM112000 32017G25KT P6SM BKN035
     FM120200 31008KT P6SM FEW080=

USA.gov is the U.S. government's official web portal to all federal, state and local government web resources and services.